sensor_id;sensor_type;location;lat;lon;timestamp;temperature;humidity
25352;DHT22;13304;48.464;8.712;2022-10-17T00:01:29;16.90;90.40
25352;DHT22;13304;48.464;8.712;2022-10-17T00:03:55;16.80;90.50
25352;DHT22;13304;48.464;8.712;2022-10-17T00:06:20;16.80;90.60
25352;DHT22;13304;48.464;8.712;2022-10-17T00:08:46;16.80;90.60
25352;DHT22;13304;48.464;8.712;2022-10-17T00:11:13;16.80;90.60
25352;DHT22;13304;48.464;8.712;2022-10-17T00:13:39;16.80;90.50
25352;DHT22;13304;48.464;8.712;2022-10-17T00:16:05;16.80;90.60
25352;DHT22;13304;48.464;8.712;2022-10-17T00:18:30;16.70;90.60
25352;DHT22;13304;48.464;8.712;2022-10-17T00:20:56;16.70;90.60
25352;DHT22;13304;48.464;8.712;2022-10-17T00:23:21;16.70;90.60
25352;DHT22;13304;48.464;8.712;2022-10-17T00:25:56;16.70;90.60
25352;DHT22;13304;48.464;8.712;2022-10-17T00:28:21;16.70;90.60
25352;DHT22;13304;48.464;8.712;2022-10-17T00:30:53;16.70;90.60
25352;DHT22;13304;48.464;8.712;2022-10-17T00:33:19;16.70;90.60
25352;DHT22;13304;48.464;8.712;2022-10-17T00:35:44;16.60;90.60
25352;DHT22;13304;48.464;8.712;2022-10-17T00:38:10;16.60;90.70
25352;DHT22;13304;48.464;8.712;2022-10-17T00:40:35;16.60;90.70
25352;DHT22;13304;48.464;8.712;2022-10-17T00:43:01;16.60;90.70
25352;DHT22;13304;48.464;8.712;2022-10-17T00:45:28;16.60;90.70
25352;DHT22;13304;48.464;8.712;2022-10-17T00:47:55;16.60;90.70
25352;DHT22;13304;48.464;8.712;2022-10-17T00:50:22;16.60;90.70
25352;DHT22;13304;48.464;8.712;2022-10-17T00:52:48;16.60;90.80
25352;DHT22;13304;48.464;8.712;2022-10-17T00:55:19;16.60;90.70
25352;DHT22;13304;48.464;8.712;2022-10-17T00:57:45;16.60;90.80
25352;DHT22;13304;48.464;8.712;2022-10-17T01:00:11;16.50;90.80
25352;DHT22;13304;48.464;8.712;2022-10-17T01:02:37;16.50;90.70
25352;DHT22;13304;48.464;8.712;2022-10-17T01:05:03;16.50;90.70
25352;DHT22;13304;48.464;8.712;2022-10-17T01:07:29;16.50;90.70
25352;DHT22;13304;48.464;8.712;2022-10-17T01:09:55;16.50;90.70
25352;DHT22;13304;48.464;8.712;2022-10-17T01:12:22;16.50;90.80
25352;DHT22;13304;48.464;8.712;2022-10-17T01:15:12;16.40;90.80
25352;DHT22;13304;48.464;8.712;2022-10-17T01:17:39;16.40;90.80
25352;DHT22;13304;48.464;8.712;2022-10-17T01:22:53;16.40;90.80
25352;DHT22;13304;48.464;8.712;2022-10-17T01:30:31;16.30;90.00
25352;DHT22;13304;48.464;8.712;2022-10-17T01:33:20;16.30;89.50
25352;DHT22;13304;48.464;8.712;2022-10-17T01:35:55;16.30;89.10
25352;DHT22;13304;48.464;8.712;2022-10-17T01:38:31;16.20;89.20
25352;DHT22;13304;48.464;8.712;2022-10-17T01:41:05;16.20;89.90
25352;DHT22;13304;48.464;8.712;2022-10-17T01:43:43;16.20;89.60
25352;DHT22;13304;48.464;8.712;2022-10-17T01:46:12;16.10;90.00
25352;DHT22;13304;48.464;8.712;2022-10-17T01:48:40;16.10;90.10
25352;DHT22;13304;48.464;8.712;2022-10-17T01:51:17;16.10;90.10
25352;DHT22;13304;48.464;8.712;2022-10-17T01:53:48;16.10;90.10
25352;DHT22;13304;48.464;8.712;2022-10-17T01:56:14;16.00;90.10
25352;DHT22;13304;48.464;8.712;2022-10-17T01:58:51;16.00;90.40
25352;DHT22;13304;48.464;8.712;2022-10-17T02:01:18;16.00;90.20
25352;DHT22;13304;48.464;8.712;2022-10-17T02:03:45;16.00;90.20
25352;DHT22;13304;48.464;8.712;2022-10-17T02:06:11;16.00;90.10
25352;DHT22;13304;48.464;8.712;2022-10-17T02:08:42;16.00;90.00
25352;DHT22;13304;48.464;8.712;2022-10-17T02:21:37;15.90;90.10
25352;DHT22;13304;48.464;8.712;2022-10-17T02:26:31;15.90;90.70
25352;DHT22;13304;48.464;8.712;2022-10-17T02:32:06;15.90;90.90
25352;DHT22;13304;48.464;8.712;2022-10-17T02:36:58;15.90;90.80
25352;DHT22;13304;48.464;8.712;2022-10-17T02:39:25;15.90;90.70
25352;DHT22;13304;48.464;8.712;2022-10-17T02:41:51;15.90;90.50
25352;DHT22;13304;48.464;8.712;2022-10-17T02:44:18;15.90;90.20
25352;DHT22;13304;48.464;8.712;2022-10-17T02:46:46;15.90;91.10
25352;DHT22;13304;48.464;8.712;2022-10-17T02:49:20;15.90;90.90
25352;DHT22;13304;48.464;8.712;2022-10-17T02:51:50;15.90;91.00
25352;DHT22;13304;48.464;8.712;2022-10-17T02:56:53;15.90;91.20
25352;DHT22;13304;48.464;8.712;2022-10-17T02:59:21;15.90;91.20
25352;DHT22;13304;48.464;8.712;2022-10-17T03:01:49;15.90;91.10
25352;DHT22;13304;48.464;8.712;2022-10-17T03:04:16;15.90;91.10
25352;DHT22;13304;48.464;8.712;2022-10-17T03:06:42;15.90;91.10
25352;DHT22;13304;48.464;8.712;2022-10-17T03:09:09;15.90;91.10
25352;DHT22;13304;48.464;8.712;2022-10-17T03:11:34;15.90;91.00
25352;DHT22;13304;48.464;8.712;2022-10-17T03:14:00;15.90;90.90
25352;DHT22;13304;48.464;8.712;2022-10-17T03:16:26;15.80;90.80
25352;DHT22;13304;48.464;8.712;2022-10-17T03:18:51;15.80;90.40
25352;DHT22;13304;48.464;8.712;2022-10-17T03:21:18;15.80;90.50
25352;DHT22;13304;48.464;8.712;2022-10-17T03:23:43;15.80;90.40
25352;DHT22;13304;48.464;8.712;2022-10-17T03:26:10;15.70;90.40
25352;DHT22;13304;48.464;8.712;2022-10-17T03:28:36;15.70;90.40
25352;DHT22;13304;48.464;8.712;2022-10-17T03:31:14;15.70;90.60
25352;DHT22;13304;48.464;8.712;2022-10-17T03:33:40;15.70;90.50
25352;DHT22;13304;48.464;8.712;2022-10-17T03:36:07;15.60;90.50
25352;DHT22;13304;48.464;8.712;2022-10-17T03:38:33;15.60;90.30
25352;DHT22;13304;48.464;8.712;2022-10-17T03:40:58;15.60;89.60
25352;DHT22;13304;48.464;8.712;2022-10-17T03:43:24;15.50;89.60
25352;DHT22;13304;48.464;8.712;2022-10-17T03:45:50;15.50;89.90
25352;DHT22;13304;48.464;8.712;2022-10-17T03:48:15;15.50;89.70
25352;DHT22;13304;48.464;8.712;2022-10-17T03:50:41;15.50;90.00
25352;DHT22;13304;48.464;8.712;2022-10-17T03:53:06;15.40;90.00
25352;DHT22;13304;48.464;8.712;2022-10-17T03:55:32;15.40;90.00
25352;DHT22;13304;48.464;8.712;2022-10-17T03:57:58;15.40;90.10
25352;DHT22;13304;48.464;8.712;2022-10-17T04:00:24;15.40;90.40
25352;DHT22;13304;48.464;8.712;2022-10-17T04:02:49;15.30;90.20
25352;DHT22;13304;48.464;8.712;2022-10-17T04:05:15;15.30;90.40
25352;DHT22;13304;48.464;8.712;2022-10-17T04:07:41;15.40;90.70
25352;DHT22;13304;48.464;8.712;2022-10-17T04:10:06;15.30;90.70
25352;DHT22;13304;48.464;8.712;2022-10-17T04:12:32;15.30;90.70
25352;DHT22;13304;48.464;8.712;2022-10-17T04:14:58;15.30;90.80
25352;DHT22;13304;48.464;8.712;2022-10-17T04:17:23;15.30;90.90
25352;DHT22;13304;48.464;8.712;2022-10-17T04:19:49;15.30;91.00
25352;DHT22;13304;48.464;8.712;2022-10-17T04:22:15;15.30;91.10
25352;DHT22;13304;48.464;8.712;2022-10-17T04:24:40;15.30;91.10
25352;DHT22;13304;48.464;8.712;2022-10-17T04:27:06;15.30;91.10
25352;DHT22;13304;48.464;8.712;2022-10-17T04:29:31;15.30;91.10
25352;DHT22;13304;48.464;8.712;2022-10-17T04:31:57;15.30;91.10
25352;DHT22;13304;48.464;8.712;2022-10-17T04:34:23;15.30;91.10
25352;DHT22;13304;48.464;8.712;2022-10-17T04:36:48;15.30;91.00
25352;DHT22;13304;48.464;8.712;2022-10-17T04:39:16;15.30;91.10
25352;DHT22;13304;48.464;8.712;2022-10-17T04:41:41;15.30;91.00
25352;DHT22;13304;48.464;8.712;2022-10-17T04:44:08;15.30;90.40
25352;DHT22;13304;48.464;8.712;2022-10-17T04:46:34;15.20;90.30
25352;DHT22;13304;48.464;8.712;2022-10-17T04:49:00;15.20;90.60
25352;DHT22;13304;48.464;8.712;2022-10-17T04:51:25;15.20;90.30
25352;DHT22;13304;48.464;8.712;2022-10-17T04:53:51;15.20;90.60
25352;DHT22;13304;48.464;8.712;2022-10-17T04:56:18;15.20;90.70
25352;DHT22;13304;48.464;8.712;2022-10-17T04:58:44;15.20;90.90
25352;DHT22;13304;48.464;8.712;2022-10-17T05:01:14;15.20;90.50
25352;DHT22;13304;48.464;8.712;2022-10-17T05:03:40;15.20;90.70
25352;DHT22;13304;48.464;8.712;2022-10-17T05:06:07;15.10;90.70
25352;DHT22;13304;48.464;8.712;2022-10-17T05:08:33;15.10;90.90
25352;DHT22;13304;48.464;8.712;2022-10-17T05:10:59;15.10;90.90
25352;DHT22;13304;48.464;8.712;2022-10-17T05:13:25;15.10;91.00
25352;DHT22;13304;48.464;8.712;2022-10-17T05:15:50;15.10;91.10
25352;DHT22;13304;48.464;8.712;2022-10-17T05:18:16;15.10;91.10
25352;DHT22;13304;48.464;8.712;2022-10-17T05:20:41;15.10;91.10
25352;DHT22;13304;48.464;8.712;2022-10-17T05:23:07;15.10;91.00
25352;DHT22;13304;48.464;8.712;2022-10-17T05:25:33;15.10;91.10
25352;DHT22;13304;48.464;8.712;2022-10-17T05:27:58;15.10;91.00
25352;DHT22;13304;48.464;8.712;2022-10-17T05:30:24;15.10;91.40
25352;DHT22;13304;48.464;8.712;2022-10-17T05:32:52;15.10;91.00
25352;DHT22;13304;48.464;8.712;2022-10-17T05:35:19;15.10;91.00
25352;DHT22;13304;48.464;8.712;2022-10-17T05:37:45;15.10;91.00
25352;DHT22;13304;48.464;8.712;2022-10-17T05:40:10;15.00;90.90
25352;DHT22;13304;48.464;8.712;2022-10-17T05:42:36;15.00;90.80
25352;DHT22;13304;48.464;8.712;2022-10-17T05:45:02;15.00;90.90
25352;DHT22;13304;48.464;8.712;2022-10-17T05:47:27;15.00;90.80
25352;DHT22;13304;48.464;8.712;2022-10-17T05:49:53;15.00;90.70
25352;DHT22;13304;48.464;8.712;2022-10-17T05:52:19;14.90;90.70
25352;DHT22;13304;48.464;8.712;2022-10-17T05:54:44;14.90;91.10
25352;DHT22;13304;48.464;8.712;2022-10-17T05:57:10;14.90;90.80
25352;DHT22;13304;48.464;8.712;2022-10-17T05:59:35;14.80;90.60
25352;DHT22;13304;48.464;8.712;2022-10-17T06:02:01;14.80;90.50
25352;DHT22;13304;48.464;8.712;2022-10-17T06:04:27;14.80;90.60
25352;DHT22;13304;48.464;8.712;2022-10-17T06:06:53;14.80;90.60
25352;DHT22;13304;48.464;8.712;2022-10-17T06:09:20;14.80;90.70
25352;DHT22;13304;48.464;8.712;2022-10-17T06:11:46;14.70;90.70
25352;DHT22;13304;48.464;8.712;2022-10-17T06:14:12;14.70;90.90
25352;DHT22;13304;48.464;8.712;2022-10-17T06:16:37;14.70;90.90
25352;DHT22;13304;48.464;8.712;2022-10-17T06:19:05;14.70;91.00
25352;DHT22;13304;48.464;8.712;2022-10-17T06:21:31;14.70;91.10
25352;DHT22;13304;48.464;8.712;2022-10-17T06:24:00;14.70;91.20
25352;DHT22;13304;48.464;8.712;2022-10-17T06:26:26;14.70;91.20
25352;DHT22;13304;48.464;8.712;2022-10-17T06:28:53;14.80;91.20
25352;DHT22;13304;48.464;8.712;2022-10-17T06:31:18;14.80;91.20
25352;DHT22;13304;48.464;8.712;2022-10-17T06:33:44;14.80;91.20
25352;DHT22;13304;48.464;8.712;2022-10-17T06:36:11;14.80;91.20
25352;DHT22;13304;48.464;8.712;2022-10-17T06:38:37;14.80;91.40
25352;DHT22;13304;48.464;8.712;2022-10-17T06:41:11;14.80;91.40
25352;DHT22;13304;48.464;8.712;2022-10-17T06:43:38;14.80;91.40
25352;DHT22;13304;48.464;8.712;2022-10-17T06:46:04;14.80;91.40
25352;DHT22;13304;48.464;8.712;2022-10-17T06:48:30;14.80;91.60
25352;DHT22;13304;48.464;8.712;2022-10-17T06:50:59;14.90;91.60
25352;DHT22;13304;48.464;8.712;2022-10-17T06:53:28;14.90;91.70
25352;DHT22;13304;48.464;8.712;2022-10-17T06:55:53;14.90;91.40
25352;DHT22;13304;48.464;8.712;2022-10-17T06:58:22;14.90;91.60
25352;DHT22;13304;48.464;8.712;2022-10-17T07:00:48;15.00;91.70
25352;DHT22;13304;48.464;8.712;2022-10-17T07:03:13;15.00;91.80
25352;DHT22;13304;48.464;8.712;2022-10-17T07:05:39;15.00;92.00
25352;DHT22;13304;48.464;8.712;2022-10-17T07:08:04;15.00;92.00
25352;DHT22;13304;48.464;8.712;2022-10-17T07:10:30;15.10;91.90
25352;DHT22;13304;48.464;8.712;2022-10-17T07:12:56;15.10;92.10
25352;DHT22;13304;48.464;8.712;2022-10-17T07:15:21;15.20;92.10
25352;DHT22;13304;48.464;8.712;2022-10-17T07:17:47;15.20;92.20
25352;DHT22;13304;48.464;8.712;2022-10-17T07:20:14;15.20;92.20
25352;DHT22;13304;48.464;8.712;2022-10-17T07:22:40;15.30;92.00
25352;DHT22;13304;48.464;8.712;2022-10-17T07:25:06;15.30;92.10
25352;DHT22;13304;48.464;8.712;2022-10-17T07:27:31;15.40;92.10
25352;DHT22;13304;48.464;8.712;2022-10-17T07:29:57;15.40;92.20
25352;DHT22;13304;48.464;8.712;2022-10-17T07:32:23;15.50;92.20
25352;DHT22;13304;48.464;8.712;2022-10-17T07:34:48;15.50;92.50
25352;DHT22;13304;48.464;8.712;2022-10-17T07:37:14;15.60;92.70
25352;DHT22;13304;48.464;8.712;2022-10-17T07:39:40;15.70;93.00
25352;DHT22;13304;48.464;8.712;2022-10-17T07:42:05;15.70;92.90
25352;DHT22;13304;48.464;8.712;2022-10-17T07:44:34;15.80;93.10
25352;DHT22;13304;48.464;8.712;2022-10-17T07:47:00;15.80;93.00
25352;DHT22;13304;48.464;8.712;2022-10-17T07:49:26;16.00;93.10
25352;DHT22;13304;48.464;8.712;2022-10-17T07:51:51;16.00;93.30
25352;DHT22;13304;48.464;8.712;2022-10-17T07:54:17;16.10;93.00
25352;DHT22;13304;48.464;8.712;2022-10-17T07:56:42;16.20;93.10
25352;DHT22;13304;48.464;8.712;2022-10-17T07:59:08;16.30;93.30
25352;DHT22;13304;48.464;8.712;2022-10-17T08:01:34;16.40;93.00
25352;DHT22;13304;48.464;8.712;2022-10-17T08:03:59;16.50;93.30
25352;DHT22;13304;48.464;8.712;2022-10-17T08:06:25;16.60;93.20
25352;DHT22;13304;48.464;8.712;2022-10-17T08:08:51;16.70;93.50
25352;DHT22;13304;48.464;8.712;2022-10-17T08:11:16;16.80;93.40
25352;DHT22;13304;48.464;8.712;2022-10-17T08:13:42;16.80;93.60
25352;DHT22;13304;48.464;8.712;2022-10-17T08:16:09;16.90;93.50
25352;DHT22;13304;48.464;8.712;2022-10-17T08:18:35;17.00;92.90
25352;DHT22;13304;48.464;8.712;2022-10-17T08:21:02;17.10;93.00
25352;DHT22;13304;48.464;8.712;2022-10-17T08:23:29;17.10;92.90
25352;DHT22;13304;48.464;8.712;2022-10-17T08:25:57;17.20;93.20
25352;DHT22;13304;48.464;8.712;2022-10-17T08:28:23;17.20;91.70
25352;DHT22;13304;48.464;8.712;2022-10-17T08:30:48;17.30;92.40
25352;DHT22;13304;48.464;8.712;2022-10-17T08:33:14;17.40;92.80
25352;DHT22;13304;48.464;8.712;2022-10-17T08:35:39;17.40;92.70
25352;DHT22;13304;48.464;8.712;2022-10-17T08:38:05;17.50;92.60
25352;DHT22;13304;48.464;8.712;2022-10-17T08:40:31;17.60;93.00
25352;DHT22;13304;48.464;8.712;2022-10-17T08:45:38;17.70;93.40
25352;DHT22;13304;48.464;8.712;2022-10-17T08:48:08;17.80;93.50
25352;DHT22;13304;48.464;8.712;2022-10-17T08:50:36;17.90;92.70
25352;DHT22;13304;48.464;8.712;2022-10-17T08:53:05;18.00;92.20
25352;DHT22;13304;48.464;8.712;2022-10-17T08:55:36;18.00;91.50
25352;DHT22;13304;48.464;8.712;2022-10-17T08:58:10;18.20;91.40
25352;DHT22;13304;48.464;8.712;2022-10-17T09:00:36;18.20;90.70
25352;DHT22;13304;48.464;8.712;2022-10-17T09:03:10;18.30;91.60
25352;DHT22;13304;48.464;8.712;2022-10-17T09:05:52;18.40;91.00
25352;DHT22;13304;48.464;8.712;2022-10-17T09:08:26;18.40;90.30
25352;DHT22;13304;48.464;8.712;2022-10-17T09:16:09;18.60;90.00
25352;DHT22;13304;48.464;8.712;2022-10-17T09:18:37;18.70;90.40
25352;DHT22;13304;48.464;8.712;2022-10-17T09:21:20;18.80;91.00
25352;DHT22;13304;48.464;8.712;2022-10-17T09:23:48;18.80;90.30
25352;DHT22;13304;48.464;8.712;2022-10-17T09:26:15;18.90;91.30
25352;DHT22;13304;48.464;8.712;2022-10-17T09:28:41;18.90;91.20
25352;DHT22;13304;48.464;8.712;2022-10-17T09:31:15;19.00;91.50
25352;DHT22;13304;48.464;8.712;2022-10-17T09:33:46;19.00;91.90
25352;DHT22;13304;48.464;8.712;2022-10-17T09:36:20;19.10;91.10
25352;DHT22;13304;48.464;8.712;2022-10-17T09:38:50;19.20;92.00
25352;DHT22;13304;48.464;8.712;2022-10-17T09:41:25;19.20;92.30
25352;DHT22;13304;48.464;8.712;2022-10-17T09:43:54;19.20;92.20
25352;DHT22;13304;48.464;8.712;2022-10-17T09:46:36;19.30;90.80
25352;DHT22;13304;48.464;8.712;2022-10-17T09:49:04;19.30;88.50
25352;DHT22;13304;48.464;8.712;2022-10-17T09:51:30;19.40;92.00
25352;DHT22;13304;48.464;8.712;2022-10-17T09:53:59;19.50;91.90
25352;DHT22;13304;48.464;8.712;2022-10-17T09:56:25;19.50;92.10
25352;DHT22;13304;48.464;8.712;2022-10-17T09:58:52;19.60;92.10
25352;DHT22;13304;48.464;8.712;2022-10-17T10:01:27;19.60;92.30
25352;DHT22;13304;48.464;8.712;2022-10-17T10:04:10;19.70;92.80
25352;DHT22;13304;48.464;8.712;2022-10-17T10:06:37;19.80;92.70
25352;DHT22;13304;48.464;8.712;2022-10-17T10:09:03;19.80;91.90
25352;DHT22;13304;48.464;8.712;2022-10-17T10:11:44;19.90;92.10
25352;DHT22;13304;48.464;8.712;2022-10-17T10:14:10;19.90;92.50
25352;DHT22;13304;48.464;8.712;2022-10-17T10:16:40;20.00;92.20
25352;DHT22;13304;48.464;8.712;2022-10-17T10:19:10;20.00;92.50
25352;DHT22;13304;48.464;8.712;2022-10-17T10:21:53;20.00;91.90
25352;DHT22;13304;48.464;8.712;2022-10-17T10:24:19;20.10;91.70
25352;DHT22;13304;48.464;8.712;2022-10-17T10:26:45;20.20;91.30
25352;DHT22;13304;48.464;8.712;2022-10-17T10:29:19;20.20;91.90
25352;DHT22;13304;48.464;8.712;2022-10-17T10:31:45;20.20;91.60
25352;DHT22;13304;48.464;8.712;2022-10-17T10:34:29;20.30;92.30
25352;DHT22;13304;48.464;8.712;2022-10-17T10:37:02;20.30;92.70
25352;DHT22;13304;48.464;8.712;2022-10-17T10:39:34;20.40;92.20
25352;DHT22;13304;48.464;8.712;2022-10-17T10:42:01;20.50;92.60
25352;DHT22;13304;48.464;8.712;2022-10-17T10:44:28;20.50;92.30
25352;DHT22;13304;48.464;8.712;2022-10-17T10:49:39;20.60;90.50
25352;DHT22;13304;48.464;8.712;2022-10-17T10:52:05;20.70;91.80
25352;DHT22;13304;48.464;8.712;2022-10-17T10:54:37;20.70;92.10
25352;DHT22;13304;48.464;8.712;2022-10-17T10:57:04;20.80;92.40
25352;DHT22;13304;48.464;8.712;2022-10-17T10:59:34;20.90;91.40
25352;DHT22;13304;48.464;8.712;2022-10-17T11:04:43;21.00;91.60
25352;DHT22;13304;48.464;8.712;2022-10-17T11:12:23;21.20;91.90
25352;DHT22;13304;48.464;8.712;2022-10-17T11:14:58;21.30;92.50
25352;DHT22;13304;48.464;8.712;2022-10-17T11:17:39;21.30;90.10
25352;DHT22;13304;48.464;8.712;2022-10-17T11:22:48;21.50;90.70
25352;DHT22;13304;48.464;8.712;2022-10-17T11:28:01;21.50;76.20
25352;DHT22;13304;48.464;8.712;2022-10-17T11:30:27;21.60;80.40
25352;DHT22;13304;48.464;8.712;2022-10-17T11:32:56;21.70;74.60
25352;DHT22;13304;48.464;8.712;2022-10-17T11:35:29;21.80;71.70
25352;DHT22;13304;48.464;8.712;2022-10-17T11:40:28;21.90;64.80
25352;DHT22;13304;48.464;8.712;2022-10-17T11:43:00;22.00;66.50
25352;DHT22;13304;48.464;8.712;2022-10-17T11:45:27;22.10;64.80
25352;DHT22;13304;48.464;8.712;2022-10-17T11:50:36;22.30;68.80
25352;DHT22;13304;48.464;8.712;2022-10-17T11:53:04;22.40;66.40
25352;DHT22;13304;48.464;8.712;2022-10-17T11:55:30;22.40;67.90
25352;DHT22;13304;48.464;8.712;2022-10-17T12:05:54;22.70;69.20
25352;DHT22;13304;48.464;8.712;2022-10-17T12:11:07;22.70;59.30
25352;DHT22;13304;48.464;8.712;2022-10-17T12:18:44;22.80;62.40
25352;DHT22;13304;48.464;8.712;2022-10-17T12:21:10;22.90;66.50
25352;DHT22;13304;48.464;8.712;2022-10-17T12:23:36;22.90;61.50
25352;DHT22;13304;48.464;8.712;2022-10-17T12:26:07;22.90;58.80
25352;DHT22;13304;48.464;8.712;2022-10-17T12:38:42;23.10;63.00
25352;DHT22;13304;48.464;8.712;2022-10-17T12:41:08;23.10;59.80
25352;DHT22;13304;48.464;8.712;2022-10-17T12:43:42;23.10;59.30
25352;DHT22;13304;48.464;8.712;2022-10-17T12:46:08;23.10;65.80
25352;DHT22;13304;48.464;8.712;2022-10-17T12:56:37;23.20;61.00
25352;DHT22;13304;48.464;8.712;2022-10-17T12:59:23;23.20;63.10
25352;DHT22;13304;48.464;8.712;2022-10-17T13:01:51;23.20;63.90
25352;DHT22;13304;48.464;8.712;2022-10-17T13:04:18;23.20;62.70
25352;DHT22;13304;48.464;8.712;2022-10-17T13:06:45;23.20;60.50
25352;DHT22;13304;48.464;8.712;2022-10-17T13:09:23;23.20;59.30
25352;DHT22;13304;48.464;8.712;2022-10-17T13:11:49;23.20;59.20
25352;DHT22;13304;48.464;8.712;2022-10-17T13:14:15;23.20;61.10
25352;DHT22;13304;48.464;8.712;2022-10-17T13:16:50;23.20;58.50
25352;DHT22;13304;48.464;8.712;2022-10-17T13:19:17;23.20;59.40
25352;DHT22;13304;48.464;8.712;2022-10-17T13:21:53;23.20;63.30
25352;DHT22;13304;48.464;8.712;2022-10-17T13:26:48;23.30;64.30
25352;DHT22;13304;48.464;8.712;2022-10-17T13:29:14;23.30;62.20
25352;DHT22;13304;48.464;8.712;2022-10-17T13:31:41;23.30;59.60
25352;DHT22;13304;48.464;8.712;2022-10-17T13:34:17;23.30;59.60
25352;DHT22;13304;48.464;8.712;2022-10-17T13:36:43;23.30;60.60
25352;DHT22;13304;48.464;8.712;2022-10-17T13:39:12;23.30;63.20
25352;DHT22;13304;48.464;8.712;2022-10-17T13:41:38;23.30;63.00
25352;DHT22;13304;48.464;8.712;2022-10-17T13:44:26;23.30;60.50
25352;DHT22;13304;48.464;8.712;2022-10-17T13:46:50;23.30;61.80
25352;DHT22;13304;48.464;8.712;2022-10-17T13:49:21;23.40;64.50
25352;DHT22;13304;48.464;8.712;2022-10-17T13:51:49;23.40;64.70
25352;DHT22;13304;48.464;8.712;2022-10-17T13:54:16;23.40;63.20
25352;DHT22;13304;48.464;8.712;2022-10-17T13:56:42;23.40;64.30
25352;DHT22;13304;48.464;8.712;2022-10-17T13:59:16;23.40;60.40
25352;DHT22;13304;48.464;8.712;2022-10-17T14:01:45;23.40;64.80
25352;DHT22;13304;48.464;8.712;2022-10-17T14:04:14;23.40;65.60
25352;DHT22;13304;48.464;8.712;2022-10-17T14:06:43;23.40;62.90
25352;DHT22;13304;48.464;8.712;2022-10-17T14:09:42;23.40;62.70
25352;DHT22;13304;48.464;8.712;2022-10-17T14:12:08;23.40;66.00
25352;DHT22;13304;48.464;8.712;2022-10-17T14:14:37;23.40;67.50
25352;DHT22;13304;48.464;8.712;2022-10-17T14:17:11;23.50;69.70
25352;DHT22;13304;48.464;8.712;2022-10-17T14:19:37;23.40;63.50
25352;DHT22;13304;48.464;8.712;2022-10-17T14:22:24;23.50;65.70
25352;DHT22;13304;48.464;8.712;2022-10-17T14:24:49;23.50;62.30
25352;DHT22;13304;48.464;8.712;2022-10-17T14:27:35;23.50;69.00
25352;DHT22;13304;48.464;8.712;2022-10-17T14:30:06;23.50;60.90
25352;DHT22;13304;48.464;8.712;2022-10-17T14:32:33;23.50;63.70
25352;DHT22;13304;48.464;8.712;2022-10-17T14:34:59;23.50;63.50
25352;DHT22;13304;48.464;8.712;2022-10-17T14:40:02;23.50;67.10
25352;DHT22;13304;48.464;8.712;2022-10-17T14:42:28;23.50;65.00
25352;DHT22;13304;48.464;8.712;2022-10-17T14:44:55;23.50;62.80
25352;DHT22;13304;48.464;8.712;2022-10-17T14:47:24;23.50;66.50
25352;DHT22;13304;48.464;8.712;2022-10-17T14:49:55;23.50;68.50
25352;DHT22;13304;48.464;8.712;2022-10-17T14:52:26;23.50;69.80
25352;DHT22;13304;48.464;8.712;2022-10-17T14:54:52;23.50;69.80
25352;DHT22;13304;48.464;8.712;2022-10-17T14:59:44;23.40;72.50
25352;DHT22;13304;48.464;8.712;2022-10-17T15:02:10;23.40;73.40
25352;DHT22;13304;48.464;8.712;2022-10-17T15:04:36;23.40;74.00
25352;DHT22;13304;48.464;8.712;2022-10-17T15:07:02;23.40;73.80
25352;DHT22;13304;48.464;8.712;2022-10-17T15:09:27;23.40;68.90
25352;DHT22;13304;48.464;8.712;2022-10-17T15:12:02;23.30;70.00
25352;DHT22;13304;48.464;8.712;2022-10-17T15:14:28;23.40;74.20
25352;DHT22;13304;48.464;8.712;2022-10-17T15:16:54;23.30;75.80
25352;DHT22;13304;48.464;8.712;2022-10-17T15:19:19;23.40;76.50
25352;DHT22;13304;48.464;8.712;2022-10-17T15:21:45;23.30;75.60
25352;DHT22;13304;48.464;8.712;2022-10-17T15:24:11;23.30;73.70
25352;DHT22;13304;48.464;8.712;2022-10-17T15:26:36;23.20;74.10
25352;DHT22;13304;48.464;8.712;2022-10-17T15:29:02;23.20;76.60
25352;DHT22;13304;48.464;8.712;2022-10-17T15:31:28;23.20;77.60
25352;DHT22;13304;48.464;8.712;2022-10-17T15:33:55;23.20;78.30
25352;DHT22;13304;48.464;8.712;2022-10-17T15:36:27;23.20;78.70
25352;DHT22;13304;48.464;8.712;2022-10-17T15:38:55;23.10;79.00
25352;DHT22;13304;48.464;8.712;2022-10-17T15:41:21;23.10;79.40
25352;DHT22;13304;48.464;8.712;2022-10-17T15:43:47;23.00;79.30
25352;DHT22;13304;48.464;8.712;2022-10-17T15:46:14;23.00;79.60
25352;DHT22;13304;48.464;8.712;2022-10-17T15:48:41;23.00;79.90
25352;DHT22;13304;48.464;8.712;2022-10-17T15:51:07;22.90;80.00
25352;DHT22;13304;48.464;8.712;2022-10-17T15:53:33;22.90;80.20
25352;DHT22;13304;48.464;8.712;2022-10-17T15:55:59;22.80;80.10
25352;DHT22;13304;48.464;8.712;2022-10-17T15:58:26;22.80;81.00
25352;DHT22;13304;48.464;8.712;2022-10-17T16:00:53;22.70;80.30
25352;DHT22;13304;48.464;8.712;2022-10-17T16:03:18;22.70;80.50
25352;DHT22;13304;48.464;8.712;2022-10-17T16:05:44;22.70;80.30
25352;DHT22;13304;48.464;8.712;2022-10-17T16:08:09;22.60;78.80
25352;DHT22;13304;48.464;8.712;2022-10-17T16:10:36;22.50;80.10
25352;DHT22;13304;48.464;8.712;2022-10-17T16:13:07;22.50;80.50
25352;DHT22;13304;48.464;8.712;2022-10-17T16:15:34;22.50;80.80
25352;DHT22;13304;48.464;8.712;2022-10-17T16:17:59;22.40;80.70
25352;DHT22;13304;48.464;8.712;2022-10-17T16:20:25;22.30;80.70
25352;DHT22;13304;48.464;8.712;2022-10-17T16:22:50;22.30;80.60
25352;DHT22;13304;48.464;8.712;2022-10-17T16:25:21;22.20;80.90
25352;DHT22;13304;48.464;8.712;2022-10-17T16:27:48;22.10;80.90
25352;DHT22;13304;48.464;8.712;2022-10-17T16:30:14;22.10;81.00
25352;DHT22;13304;48.464;8.712;2022-10-17T16:32:40;22.00;81.30
25352;DHT22;13304;48.464;8.712;2022-10-17T16:35:06;21.90;81.40
25352;DHT22;13304;48.464;8.712;2022-10-17T16:37:32;21.80;81.60
25352;DHT22;13304;48.464;8.712;2022-10-17T16:39:57;21.80;81.70
25352;DHT22;13304;48.464;8.712;2022-10-17T16:42:23;21.70;81.80
25352;DHT22;13304;48.464;8.712;2022-10-17T16:44:49;21.60;81.00
25352;DHT22;13304;48.464;8.712;2022-10-17T16:47:15;21.60;81.60
25352;DHT22;13304;48.464;8.712;2022-10-17T16:49:41;21.50;82.00
25352;DHT22;13304;48.464;8.712;2022-10-17T16:52:07;21.40;81.50
25352;DHT22;13304;48.464;8.712;2022-10-17T16:54:33;21.40;82.10
25352;DHT22;13304;48.464;8.712;2022-10-17T16:56:59;21.30;82.40
25352;DHT22;13304;48.464;8.712;2022-10-17T16:59:25;21.20;82.50
25352;DHT22;13304;48.464;8.712;2022-10-17T17:01:51;21.20;82.70
25352;DHT22;13304;48.464;8.712;2022-10-17T17:04:17;21.10;82.60
25352;DHT22;13304;48.464;8.712;2022-10-17T17:06:42;21.00;82.70
25352;DHT22;13304;48.464;8.712;2022-10-17T17:09:08;21.00;82.90
25352;DHT22;13304;48.464;8.712;2022-10-17T17:11:34;20.90;83.00
25352;DHT22;13304;48.464;8.712;2022-10-17T17:14:00;20.90;83.10